createdAt,value
2018-12-06T00:07:03.055Z,93.30
2018-12-06T00:09:31.195Z,93.40
2018-12-06T00:11:59.343Z,93.50
2018-12-06T00:19:24.061Z,93.70
2018-12-06T00:26:48.167Z,93.60
2018-12-06T00:29:16.364Z,93.50
2018-12-06T00:31:44.490Z,93.60
2018-12-06T00:34:12.746Z,93.60
2018-12-06T00:36:40.889Z,93.60
2018-12-06T00:39:09.095Z,93.50
2018-12-06T00:44:05.276Z,93.10
2018-12-06T00:49:01.429Z,93.40
2018-12-06T00:53:57.469Z,93.50
2018-12-06T00:56:25.611Z,93.50
2018-12-06T00:58:53.715Z,93.40
2018-12-06T01:01:21.926Z,93.40
2018-12-06T01:03:50.063Z,93.30
2018-12-06T01:06:18.282Z,93.20
2018-12-06T01:11:14.524Z,93.10
2018-12-06T01:16:10.705Z,92.80
2018-12-06T01:21:06.831Z,92.80
2018-12-06T01:23:34.969Z,92.90
2018-12-06T01:26:03.272Z,93.20
2018-12-06T01:30:59.276Z,93.50
2018-12-06T01:33:27.415Z,93.50
2018-12-06T01:43:19.445Z,93.90
2018-12-06T01:48:15.532Z,93.90
2018-12-06T01:53:11.552Z,94.00
2018-12-06T01:55:39.676Z,93.90
2018-12-06T01:58:07.865Z,93.80
2018-12-06T02:00:36.073Z,93.60
2018-12-06T02:03:04.154Z,93.40
2018-12-06T02:05:32.321Z,93.30
2018-12-06T02:08:00.407Z,93.30
2018-12-06T02:10:28.512Z,93.30
2018-12-06T02:12:56.676Z,93.30
2018-12-06T02:15:24.859Z,93.20
2018-12-06T02:17:53.039Z,93.20
2018-12-06T02:20:21.161Z,93.30
2018-12-06T02:22:49.252Z,93.20
2018-12-06T02:25:17.454Z,93.30
2018-12-06T02:27:45.611Z,93.30
2018-12-06T02:30:13.869Z,93.30
2018-12-06T02:32:42.062Z,93.30
2018-12-06T02:35:10.292Z,93.30
2018-12-06T02:37:38.402Z,93.40
2018-12-06T02:40:06.941Z,93.20
2018-12-06T02:42:35.179Z,93.10
2018-12-06T02:47:31.283Z,93.10
2018-12-06T02:49:59.392Z,93.10
2018-12-06T02:54:55.787Z,93.00
2018-12-06T02:57:23.885Z,93.00
2018-12-06T03:02:20.007Z,92.90
2018-12-06T03:04:48.185Z,92.90
2018-12-06T03:07:16.317Z,92.80
2018-12-06T03:09:46.293Z,92.80
2018-12-06T03:12:14.627Z,92.80
2018-12-06T03:17:10.682Z,92.60
2018-12-06T03:19:38.775Z,92.60
2018-12-06T03:22:06.937Z,92.50
2018-12-06T03:24:35.096Z,92.50
2018-12-06T03:27:03.183Z,92.40
2018-12-06T03:29:31.280Z,92.30
2018-12-06T03:39:23.185Z,92.40
2018-12-06T03:41:51.293Z,92.40
2018-12-06T03:44:19.549Z,92.40
2018-12-06T03:49:15.944Z,92.40
2018-12-06T03:51:44.029Z,92.50
2018-12-06T03:54:12.124Z,92.50
2018-12-06T03:56:40.228Z,92.60
2018-12-06T04:01:36.188Z,92.40
2018-12-06T04:04:04.433Z,92.40
2018-12-06T04:06:32.610Z,92.40
2018-12-06T04:09:00.688Z,92.50
2018-12-06T04:11:28.788Z,92.50
2018-12-06T04:13:56.875Z,92.50
2018-12-06T04:16:24.986Z,92.50
2018-12-06T04:18:53.128Z,92.50
2018-12-06T04:21:21.312Z,92.60
2018-12-06T04:23:49.432Z,92.70
2018-12-06T04:26:17.636Z,92.70
2018-12-06T04:28:45.841Z,92.80
2018-12-06T04:31:13.975Z,92.80
2018-12-06T04:36:10.161Z,92.80
2018-12-06T04:41:06.261Z,92.90
2018-12-06T04:43:34.388Z,92.90
2018-12-06T04:48:30.608Z,92.70
2018-12-06T04:50:58.736Z,92.60
2018-12-06T04:53:27.014Z,92.60
2018-12-06T04:55:55.216Z,92.70
2018-12-06T04:58:23.523Z,92.60
2018-12-06T05:03:19.728Z,92.90
2018-12-06T05:08:15.772Z,92.90
2018-12-06T05:10:43.900Z,93.00
2018-12-06T05:13:12.063Z,92.80
2018-12-06T05:15:40.223Z,92.90
2018-12-06T05:18:08.361Z,93.00
2018-12-06T05:20:36.489Z,93.00
2018-12-06T05:23:04.612Z,93.10
2018-12-06T05:25:32.752Z,93.10
2018-12-06T05:28:01.040Z,93.00
2018-12-06T05:30:29.168Z,93.00
2018-12-06T05:32:57.294Z,92.90
2018-12-06T05:42:49.340Z,92.60
2018-12-06T05:50:13.333Z,92.70
2018-12-06T05:52:41.460Z,92.80
2018-12-06T05:55:09.780Z,92.70
2018-12-06T05:57:38.076Z,92.50
2018-12-06T06:00:07.592Z,92.50
2018-12-06T06:02:36.788Z,92.40
2018-12-06T06:05:09.936Z,92.30
2018-12-06T06:07:38.048Z,92.20
2018-12-06T06:10:12.801Z,92.30
2018-12-06T06:12:40.977Z,92.30
2018-12-06T06:17:42.035Z,92.60
2018-12-06T06:20:10.395Z,92.90
2018-12-06T06:25:06.636Z,93.00
2018-12-06T06:27:34.913Z,93.00
2018-12-06T06:30:03.471Z,92.90
2018-12-06T06:32:31.641Z,92.90
2018-12-06T06:34:59.865Z,92.90
2018-12-06T06:39:55.908Z,92.60
2018-12-06T06:42:24.191Z,92.60
2018-12-06T06:45:23.259Z,92.50
2018-12-06T06:50:19.360Z,92.50
2018-12-06T06:52:47.547Z,92.50
2018-12-06T06:55:15.743Z,92.70
2018-12-06T07:00:11.949Z,92.60
2018-12-06T07:02:40.210Z,92.50
2018-12-06T07:05:08.560Z,92.40
2018-12-06T07:07:36.782Z,92.30
2018-12-06T07:10:06.132Z,92.20
2018-12-06T07:15:02.305Z,92.20
2018-12-06T07:19:58.542Z,92.30
2018-12-06T07:22:26.620Z,92.50
2018-12-06T07:24:54.992Z,92.50
2018-12-06T07:27:23.128Z,92.70
2018-12-06T07:29:51.298Z,92.80
2018-12-06T07:32:19.576Z,92.90
2018-12-06T07:34:47.688Z,92.80
2018-12-06T07:37:15.804Z,93.00
2018-12-06T07:49:35.740Z,93.10
2018-12-06T07:52:04.016Z,93.10
2018-12-06T07:54:32.236Z,92.90
2018-12-06T07:57:00.415Z,92.60
2018-12-06T07:59:28.637Z,92.60
2018-12-06T08:01:56.843Z,92.60
2018-12-06T08:06:52.932Z,92.50
2018-12-06T08:14:16.899Z,92.60
2018-12-06T08:19:13.942Z,92.50
2018-12-06T08:21:42.321Z,92.50
2018-12-06T08:24:10.471Z,92.50
2018-12-06T08:26:38.699Z,92.60
2018-12-06T08:29:06.999Z,92.90
2018-12-06T08:31:35.127Z,92.70
2018-12-06T08:34:06.346Z,92.80
2018-12-06T08:43:57.207Z,93.10
2018-12-06T08:46:25.315Z,92.90
2018-12-06T08:48:53.957Z,92.80
2018-12-06T08:51:22.097Z,93.00
2018-12-06T08:56:18.309Z,92.60
2018-12-06T08:58:46.505Z,92.80
2018-12-06T09:01:14.751Z,92.50
2018-12-06T09:06:10.804Z,92.40
2018-12-06T09:08:39.065Z,92.20
2018-12-06T09:16:03.082Z,92.20
2018-12-06T09:18:31.287Z,92.00
2018-12-06T09:20:59.457Z,92.20
2018-12-06T09:23:27.701Z,92.10
2018-12-06T09:25:55.850Z,92.10
2018-12-06T09:28:24.007Z,92.10
2018-12-06T09:30:52.184Z,92.30
2018-12-06T09:33:20.561Z,91.80
2018-12-06T09:35:54.465Z,91.70
2018-12-06T09:38:22.599Z,91.60
2018-12-06T09:40:51.070Z,91.40
2018-12-06T09:43:19.285Z,91.50
2018-12-06T09:45:47.656Z,91.30
2018-12-06T09:48:15.892Z,91.30
2018-12-06T09:50:44.112Z,90.80
2018-12-06T09:53:12.267Z,90.60
2018-12-06T09:55:40.409Z,91.00
2018-12-06T09:58:08.625Z,90.60
2018-12-06T10:00:36.918Z,90.30
2018-12-06T10:03:05.133Z,90.30
2018-12-06T10:05:33.352Z,90.40
2018-12-06T10:08:01.472Z,90.40
2018-12-06T10:10:29.612Z,90.10
2018-12-06T10:15:25.853Z,90.30
2018-12-06T10:17:54.145Z,90.00
2018-12-06T10:20:23.285Z,90.10
2018-12-06T10:22:51.434Z,90.20
2018-12-06T10:25:19.635Z,90.00
2018-12-06T10:27:47.831Z,90.00
2018-12-06T10:32:44.012Z,90.00
2018-12-06T10:35:12.185Z,90.00
2018-12-06T10:37:40.300Z,89.90
2018-12-06T10:40:08.576Z,89.70
2018-12-06T10:42:36.706Z,89.50
2018-12-06T10:47:33.212Z,89.30
2018-12-06T10:50:01.332Z,89.40
2018-12-06T10:52:29.435Z,89.80
2018-12-06T10:54:57.544Z,89.60
2018-12-06T10:57:25.653Z,89.70
2018-12-06T10:59:53.749Z,89.70
2018-12-06T11:02:27.853Z,89.10
2018-12-06T11:04:56.028Z,88.60
2018-12-06T11:07:24.292Z,88.60
2018-12-06T11:09:52.504Z,88.60
2018-12-06T11:14:48.528Z,88.50
2018-12-06T11:17:16.648Z,88.50
2018-12-06T11:19:44.788Z,88.70
2018-12-06T11:22:12.992Z,88.60
2018-12-06T11:27:09.088Z,88.70
2018-12-06T11:29:37.208Z,88.80
2018-12-06T11:32:05.342Z,88.70
2018-12-06T11:44:25.276Z,88.60
2018-12-06T11:46:53.539Z,88.90
2018-12-06T11:49:21.663Z,88.70
2018-12-06T11:51:49.860Z,88.70
2018-12-06T11:56:45.941Z,88.90
2018-12-06T11:59:14.153Z,88.60
2018-12-06T12:01:42.587Z,88.90
2018-12-06T12:04:10.799Z,89.20
2018-12-06T12:23:55.324Z,89.60
2018-12-06T12:26:23.460Z,89.80
2018-12-06T12:31:19.560Z,90.00
2018-12-06T12:48:35.278Z,90.00
2018-12-06T12:53:31.486Z,89.80
2018-12-06T12:55:59.670Z,89.90
2018-12-06T13:00:55.764Z,89.50
2018-12-06T13:03:23.884Z,89.30
2018-12-06T13:05:52.009Z,88.90
2018-12-06T13:08:20.200Z,88.80
2018-12-06T13:10:48.336Z,88.90
2018-12-06T13:13:16.523Z,88.70
2018-12-06T13:18:12.685Z,88.50
2018-12-06T13:20:40.816Z,88.50
2018-12-06T13:23:09.101Z,88.30
2018-12-06T13:25:37.265Z,88.40
2018-12-06T13:28:05.579Z,88.40
2018-12-06T13:33:01.801Z,88.50
2018-12-06T13:35:30.084Z,88.50
2018-12-06T13:37:58.344Z,88.70
2018-12-06T13:40:26.551Z,88.70
2018-12-06T13:42:54.800Z,88.90
2018-12-06T13:47:50.887Z,88.80
2018-12-06T13:55:15.011Z,88.90
2018-12-06T13:57:43.125Z,89.00
2018-12-06T14:00:11.429Z,89.20
2018-12-06T14:02:39.622Z,89.30
2018-12-06T14:07:35.899Z,89.60
2018-12-06T14:12:32.044Z,89.90
2018-12-06T14:15:00.187Z,90.00
2018-12-06T14:17:28.312Z,90.10
2018-12-06T14:22:24.352Z,90.50
2018-12-06T14:24:52.511Z,90.60
2018-12-06T14:27:20.747Z,90.70
2018-12-06T14:29:48.952Z,90.90
2018-12-06T14:32:17.171Z,90.80
2018-12-06T14:42:09.251Z,89.70
2018-12-06T14:44:37.371Z,89.40
2018-12-06T14:52:01.421Z,89.30
2018-12-06T14:56:57.457Z,88.50
2018-12-06T15:16:41.060Z,86.10
2018-12-06T15:19:09.172Z,86.30
2018-12-06T15:29:01.048Z,86.00
2018-12-06T15:33:57.053Z,85.90
2018-12-06T15:43:49.081Z,86.20
2018-12-06T15:51:13.228Z,85.60
2018-12-06T15:56:09.284Z,85.40
2018-12-06T15:58:38.500Z,85.70
2018-12-06T16:01:06.648Z,85.30
2018-12-06T16:03:34.845Z,85.50
2018-12-06T16:06:03.076Z,85.50
2018-12-06T16:10:59.201Z,85.30
2018-12-06T16:13:27.316Z,85.20
2018-12-06T16:15:55.462Z,85.40
2018-12-06T16:18:23.575Z,85.30
2018-12-06T16:20:51.828Z,85.30
2018-12-06T16:23:20.095Z,85.40
2018-12-06T16:28:17.389Z,85.30
2018-12-06T16:30:48.221Z,85.10
2018-12-06T16:33:16.500Z,84.60
2018-12-06T16:35:46.441Z,84.80
2018-12-06T16:38:14.763Z,84.70
2018-12-06T16:43:10.849Z,85.00
2018-12-06T16:45:39.133Z,84.50
2018-12-06T16:48:07.419Z,84.70
2018-12-06T16:50:35.520Z,84.80
2018-12-06T16:55:31.560Z,84.80
2018-12-06T16:57:59.684Z,84.80
2018-12-06T17:00:27.978Z,84.80
2018-12-06T17:05:24.077Z,84.40
2018-12-06T17:07:52.271Z,84.40
2018-12-06T17:10:20.480Z,84.10
2018-12-06T17:15:16.612Z,84.10
2018-12-06T17:17:44.828Z,84.00
2018-12-06T17:20:13.041Z,84.20
2018-12-06T17:22:41.247Z,84.40
2018-12-06T17:25:09.547Z,84.40
2018-12-06T17:27:37.821Z,84.10
2018-12-06T17:30:06.951Z,84.40
2018-12-06T17:37:31.108Z,84.20
2018-12-06T17:44:55.127Z,84.60
2018-12-06T17:47:23.475Z,84.80
2018-12-06T17:49:51.597Z,84.90
2018-12-06T17:52:19.708Z,85.20
2018-12-06T17:54:47.836Z,85.20
2018-12-06T17:57:16.040Z,85.30
2018-12-06T17:59:44.249Z,85.20
2018-12-06T18:02:12.368Z,85.50
2018-12-06T18:04:40.575Z,85.50
2018-12-06T18:09:36.651Z,85.50
2018-12-06T18:12:04.940Z,85.70
2018-12-06T18:17:01.021Z,85.60
2018-12-06T18:19:29.220Z,85.70
2018-12-06T18:21:57.338Z,85.90
2018-12-06T18:24:25.456Z,85.90
2018-12-06T18:26:53.675Z,86.30
2018-12-06T18:29:21.794Z,86.40
2018-12-06T18:31:50.001Z,86.40
2018-12-06T18:34:18.141Z,86.40
2018-12-06T18:39:14.308Z,86.40
2018-12-06T18:41:42.437Z,86.70
2018-12-06T18:46:38.671Z,86.70
2018-12-06T18:51:34.832Z,86.90
2018-12-06T18:54:02.961Z,86.90
2018-12-06T18:58:59.091Z,87.30
2018-12-06T19:01:27.205Z,87.30
2018-12-06T19:03:55.712Z,87.40
2018-12-06T19:06:23.841Z,87.40
2018-12-06T19:08:51.964Z,87.20
2018-12-06T19:21:12.068Z,87.20
2018-12-06T19:23:40.950Z,87.10
2018-12-06T19:26:09.032Z,87.10
2018-12-06T19:28:37.144Z,87.20
2018-12-06T19:31:05.247Z,87.40
2018-12-06T19:33:33.364Z,87.30
2018-12-06T19:43:25.112Z,87.30
2018-12-06T19:45:53.417Z,87.30
2018-12-06T19:48:21.564Z,87.50
2018-12-06T19:50:49.789Z,87.50
2018-12-06T19:55:45.805Z,87.50
2018-12-06T19:58:13.908Z,87.50
2018-12-06T20:00:42.190Z,87.50
2018-12-06T20:03:10.384Z,87.70
2018-12-06T20:08:06.367Z,87.50
2018-12-06T20:10:34.573Z,87.40
2018-12-06T20:13:02.691Z,87.30
2018-12-06T20:15:30.876Z,87.10
2018-12-06T20:17:59.064Z,87.10
2018-12-06T20:20:27.252Z,87.10
2018-12-06T20:22:55.438Z,87.10
2018-12-06T20:25:23.632Z,87.20
2018-12-06T20:27:51.763Z,87.00
2018-12-06T20:30:19.957Z,87.10
2018-12-06T20:35:16.117Z,86.90
2018-12-06T20:37:44.228Z,86.80
2018-12-06T20:40:12.879Z,86.80
2018-12-06T20:42:41.236Z,86.90
2018-12-06T20:45:09.488Z,86.90
2018-12-06T20:47:37.605Z,86.90
2018-12-06T20:50:06.006Z,86.70
2018-12-06T20:52:34.200Z,86.80
2018-12-06T20:55:02.379Z,86.70
2018-12-06T20:57:37.253Z,86.90
2018-12-06T21:02:29.431Z,87.20
2018-12-06T21:04:57.612Z,87.00
2018-12-06T21:17:17.699Z,86.90
2018-12-06T21:19:45.886Z,86.90
2018-12-06T21:22:14.081Z,86.70
2018-12-06T21:24:42.200Z,86.80
2018-12-06T21:27:10.336Z,86.60
2018-12-06T21:29:38.449Z,86.70
2018-12-06T21:32:06.628Z,86.90
2018-12-06T21:34:34.856Z,87.10
2018-12-06T21:37:03.044Z,87.00
2018-12-06T21:39:31.163Z,86.90
2018-12-06T21:41:59.526Z,87.20
2018-12-06T21:49:23.627Z,87.10
2018-12-06T21:54:19.692Z,87.30
2018-12-06T21:56:47.805Z,87.30
2018-12-06T21:59:16.024Z,87.30
2018-12-06T22:01:44.100Z,87.20
2018-12-06T22:04:13.231Z,87.20
2018-12-06T22:14:05.140Z,86.50
2018-12-06T22:19:01.301Z,86.10
2018-12-06T22:21:29.448Z,86.00
2018-12-06T22:23:57.662Z,86.20
2018-12-06T22:28:53.907Z,86.10
2018-12-06T22:31:22.043Z,86.10
2018-12-06T22:33:50.217Z,86.20
2018-12-06T22:36:18.432Z,86.10
2018-12-06T22:51:06.216Z,86.00
2018-12-06T22:56:02.386Z,86.30
2018-12-06T22:58:30.581Z,86.50
2018-12-06T23:01:00.391Z,86.60
2018-12-06T23:03:28.659Z,86.60
2018-12-06T23:05:56.937Z,86.60
2018-12-06T23:13:21.334Z,86.50
2018-12-06T23:25:48.012Z,86.30
2018-12-06T23:28:16.149Z,86.50
2018-12-06T23:30:44.273Z,86.50
2018-12-06T23:33:12.488Z,86.50
2018-12-06T23:35:40.670Z,86.30
2018-12-06T23:38:15.799Z,86.40
2018-12-06T23:40:44.065Z,86.30
2018-12-06T23:43:12.240Z,86.30
2018-12-06T23:45:40.429Z,86.20
2018-12-06T23:48:08.641Z,86.10
2018-12-06T23:50:36.998Z,86.20
2018-12-06T23:53:05.132Z,86.10
2018-12-06T23:55:33.438Z,86.00
2018-12-06T23:58:01.565Z,85.80
